X  CloseMetar Aviation Weather Data     ENZV Stavanger , Sola

Temperature

11°C Temperature

10°C Dewpoint

94% Humidity



Wind

 8 KM/H

 5 MPH

 2 M/S

 4 KTS



310°
North West
Current Conditions

Mostly Cloudy Mostly Cloudy
Pressure 1013.92 (hPa) - 29.94 (in)
Visibility 6.2 (mi) - 10 (km)
Airport
Airport-code ENZV

Location Stavanger , Sola 100 (km)

Metar:
ENZV 170250Z 31004KT 9999 BKN010 11/10 Q1014

Time: 17-07-2019 04:50